Time;durP1;ratioP1;P1;durP2;ratioP2;P2;SDS_P1;SDS_P2;PMS_P1;PMS_P2;Temp;Humidity;BMP_temperature;BMP_pressure;BME280_temperature;BME280_humidity;BME280_pressure;Samples;Min_cycle;Max_cycle;Signal;HPM_P1;HPM_P2
2024/02/03 00:00:01;;;;;;;;;;;;;;;5.28;62.64;100542.97;5011334;28;20314;-87
2024/02/03 00:02:26;;;;;;;;;;;;;;;5.23;63.06;100522.38;5011422;28;19963;-88
2024/02/03 00:04:51;;;;;;;;;;;;;;;5.24;62.19;100529.28;5012540;28;19976;-88
2024/02/03 00:07:17;;;;;;;;;;;;;;;5.26;62.18;100523.94;5011609;28;19976;-87
2024/02/03 00:09:42;;;;;;;;;;;;;;;5.25;62.12;100522.25;5011355;28;19917;-88
2024/02/03 00:12:08;;;;;;;;;;;;;;;5.22;63.07;100522.50;5010928;28;19913;-88
2024/02/03 00:14:34;;;;;;;;;;;;;;;5.21;62.87;100524.28;5011250;28;19913;-88
2024/02/03 00:16:59;;;;;;;;;;;;;;;5.20;62.36;100517.38;5011266;28;20302;-88
2024/02/03 00:19:24;;;;;;;;;;;;;;;5.21;62.09;100523.47;5012687;28;19914;-87
2024/02/03 00:21:50;;;;;;;;;;;;;;;5.18;62.02;100528.91;5011167;28;19914;-87
2024/02/03 00:24:15;;;;;;;;;;;;;;;5.19;62.12;100515.69;5011035;28;19918;-88
2024/02/03 00:26:41;;;;;;;;;;;;;;;5.17;62.42;100520.22;5010969;28;19921;-88
2024/02/03 00:29:06;;;;;;;;;;;;;;;5.16;63.38;100522.94;5010909;28;20000;-87
2024/02/03 00:31:32;;;;;;;;;;;;;;;5.16;62.78;100520.34;5011353;28;20310;-86
2024/02/03 00:33:57;;;;;;;;;;;;;;;5.15;62.32;100523.91;5012157;28;20398;-87
2024/02/03 00:36:23;;;;;;;;;;;;;;;5.14;62.45;100520.44;5012293;28;19920;-88
2024/02/03 00:38:48;;;;;;;;;;;;;;;5.12;61.80;100519.75;5010912;28;19921;-88
2024/02/03 00:41:13;;;;;;;;;;;;;;;5.11;62.45;100508.44;5012352;28;19913;-87
2024/02/03 00:43:39;;;;;;;;;;;;;;;5.11;63.60;100518.91;5010986;28;19930;-87
2024/02/03 00:46:04;;;;;;;;;;;;;;;5.10;63.18;100514.63;5010973;28;19917;-87
2024/02/03 00:48:29;;;;;;;;;;;;;;;5.10;63.67;100513.78;5012244;28;20365;-88
2024/02/03 00:50:55;;;;;;;;;;;;;;;5.09;62.81;100514.75;5010970;28;19980;-88
2024/02/03 00:53:20;;;;;;;;;;;;;;;5.09;62.53;100507.72;5011353;28;19914;-88
2024/02/03 00:55:45;;;;;;;;;;;;;;;5.10;62.42;100509.38;5010667;28;19917;-87
2024/02/03 00:58:10;;;;;;;;;;;;;;;5.10;62.92;100508.56;5011955;28;19967;-88
2024/02/03 01:00:36;;;;;;;;;;;;;;;5.11;62.91;100504.97;5012156;28;19921;-87
2024/02/03 01:03:01;;;;;;;;;;;;;;;5.12;63.08;100506.66;5011089;28;19914;-88
2024/02/03 01:05:26;;;;;;;;;;;;;;;5.11;63.11;100505.81;5010911;28;19917;-87
2024/02/03 01:07:52;;;;;;;;;;;;;;;5.14;63.76;100501.28;5010846;28;20471;-87
2024/02/03 01:10:17;;;;;;;;;;;;;;;5.15;62.42;100508.19;5010796;28;20080;-87
2024/02/03 01:12:42;;;;;;;;;;;;;;;5.14;62.36;100496.88;5010910;28;19913;-88
2024/02/03 01:15:08;;;;;;;;;;;;;;;5.13;62.24;100494.38;5010844;28;19913;-87
2024/02/03 01:17:34;;;;;;;;;;;;;;;5.10;62.01;100493.69;5010627;28;19921;-87
2024/02/03 01:19:59;;;;;;;;;;;;;;;5.09;62.81;100496.41;5010656;28;19917;-86
2024/02/03 01:22:24;;;;;;;;;;;;;;;5.10;63.14;100495.47;5010778;28;19913;-87
2024/02/03 01:24:50;;;;;;;;;;;;;;;5.10;63.12;100492.84;5013924;28;19928;-87
2024/02/03 01:27:15;;;;;;;;;;;;;;;5.11;63.11;100499.75;5014104;28;19925;-87
2024/02/03 01:29:40;;;;;;;;;;;;;;;5.12;62.98;100498.78;5015309;28;20433;-88
2024/02/03 01:32:06;;;;;;;;;;;;;;;5.13;63.20;100497.84;5014049;28;19913;-88
2024/02/03 01:34:32;;;;;;;;;;;;;;;5.15;62.39;100488.09;5015303;28;20000;-88
2024/02/03 01:36:57;;;;;;;;;;;;;;;5.16;62.75;100486.31;5013900;28;19906;-86
2024/02/03 01:39:22;;;;;;;;;;;;;;;5.17;62.28;100490.59;5015201;28;19920;-87
2024/02/03 01:41:48;;;;;;;;;;;;;;;5.16;62.98;100484.50;5014047;28;19914;-87
2024/02/03 01:44:13;;;;;;;;;;;;;;;5.15;62.12;100482.84;5013695;28;19977;-87
2024/02/03 01:46:39;;;;;;;;;;;;;;;5.12;62.73;100475.25;5015206;28;19956;-88
2024/02/03 01:49:04;;;;;;;;;;;;;;;5.11;63.42;100487.50;5014042;28;19975;-87
2024/02/03 01:51:30;;;;;;;;;;;;;;;5.12;62.71;100477.84;5014024;28;19943;-88
2024/02/03 01:53:55;;;;;;;;;;;;;;;5.09;63.66;100478.09;5014033;28;19940;-87
2024/02/03 01:56:21;;;;;;;;;;;;;;;5.10;62.29;100482.38;5014220;28;19917;-88
2024/02/03 01:58:47;;;;;;;;;;;;;;;5.08;62.39;100482.50;5013825;28;20505;-86
2024/02/03 02:01:13;;;;;;;;;;;;;;;5.09;62.91;100478.94;5015162;28;20004;-87
2024/02/03 02:03:38;;;;;;;;;;;;;;;5.10;62.95;100472.75;5014989;28;19952;-87
2024/02/03 02:06:04;;;;;;;;;;;;;;;5.13;62.97;100482.13;5013726;28;19943;-87
2024/02/03 02:08:42;;;;;;;;;;;;;;;5.14;63.69;100475.13;5013406;28;19925;-88
2024/02/03 02:11:07;;;;;;;;;;;;;;;5.11;62.69;100479.63;5013700;28;19918;-87
2024/02/03 02:13:33;;;;;;;;;;;;;;;5.10;63.36;100469.28;5013518;28;19917;-86
2024/02/03 02:15:58;;;;;;;;;;;;;;;5.07;63.38;100467.75;5013467;28;19914;-87
2024/02/03 02:18:24;;;;;;;;;;;;;;;5.07;63.21;100472.16;5013570;28;19964;-88
2024/02/03 02:20:50;;;;;;;;;;;;;;;5.07;63.52;100464.28;5013473;28;19913;-88
2024/02/03 02:23:15;;;;;;;;;;;;;;;5.03;63.88;100463.69;5014648;28;20303;-86
2024/02/03 02:25:41;;;;;;;;;;;;;;;5.02;63.10;100463.81;5013340;28;19921;-87
2024/02/03 02:28:06;;;;;;;;;;;;;;;5.02;62.68;100467.28;5014543;28;20353;-87
2024/02/03 02:30:31;;;;;;;;;;;;;;;5.03;63.01;100475.97;5014448;28;20399;-87
2024/02/03 02:32:58;;;;;;;;;;;;;;;5.03;62.98;100473.34;5013571;28;19921;-86
2024/02/03 02:35:23;;;;;;;;;;;;;;;5.02;63.72;100471.69;5012776;28;19913;-87
2024/02/03 02:37:48;;;;;;;;;;;;;;;5.00;63.67;100457.88;5013383;28;19909;-86
2024/02/03 02:40:13;;;;;;;;;;;;;;;5.01;62.94;100470.84;5013159;28;19918;-87
2024/02/03 02:45:42;;;;;;;;;;;;;;;4.97;62.98;100466.81;5042671;28;20372;-86
2024/02/03 02:51:12;;;;;;;;;;;;;;;4.97;62.71;100471.19;5043541;28;19929;-85
2024/02/03 02:53:37;;;;;;;;;;;;;;;4.97;62.80;100469.41;5017352;28;20388;-85
2024/02/03 02:56:24;;;;;;;;;;;;;;;5.00;63.11;100466.56;5016289;28;19913;-86
2024/02/03 02:58:49;;;;;;;;;;;;;;;5.02;62.94;100466.44;5018721;28;20329;-85
2024/02/03 03:01:16;;;;;;;;;;;;;;;5.02;62.64;100464.66;5016369;28;19914;-86
2024/02/03 03:03:42;;;;;;;;;;;;;;;5.00;62.88;100457.88;5016141;28;20011;-88
2024/02/03 03:06:07;;;;;;;;;;;;;;;5.01;62.58;100467.41;5016048;28;19925;-86
2024/02/03 03:08:32;;;;;;;;;;;;;;;4.98;62.68;100458.00;5015884;28;19945;-87
2024/02/03 03:10:58;;;;;;;;;;;;;;;4.97;63.32;100461.56;5033871;28;20034;-87
2024/02/03 03:13:23;;;;;;;;;;;;;;;4.98;63.42;100463.22;5033493;28;20459;-87
2024/02/03 03:15:48;;;;;;;;;;;;;;;5.00;62.71;100456.09;5016293;28;19913;-85
2024/02/03 03:18:14;;;;;;;;;;;;;;;5.01;62.87;100463.00;5016123;28;19913;-86
2024/02/03 03:35:53;;;;;;;;;;;;;;;4.93;62.94;100459.31;5048878;28;19980;-85
2024/02/03 03:38:18;;;;;;;;;;;;;;;4.95;63.53;100462.63;5036152;28;20369;-87
2024/02/03 03:40:43;;;;;;;;;;;;;;;4.95;63.31;100466.09;5034004;28;20378;-86
2024/02/03 03:43:09;;;;;;;;;;;;;;;4.95;64.92;100463.47;5034728;28;20382;-86
2024/02/03 03:48:43;;;;;;;;;;;;;;;4.92;63.55;100460.25;5043526;28;19984;-86
2024/02/03 03:54:11;;;;;;;;;;;;;;;4.88;63.15;100450.97;5049328;28;19983;-85
2024/02/03 07:30:10;;;;;;;;;;;;;;;4.93;59.71;100417.44;5049171;23;19933;-85
2024/02/03 07:32:36;;;;;;;;;;;;;;;5.02;59.31;100419.34;4993676;28;19922;-86
2024/02/03 07:35:02;;;;;;;;;;;;;;;5.12;58.78;100417.66;4993833;28;19918;-87
2024/02/03 07:37:27;;;;;;;;;;;;;;;5.22;58.08;100417.78;4993436;28;19921;-88
2024/02/03 07:39:52;;;;;;;;;;;;;;;5.34;58.04;100411.56;4976042;28;20387;-88
2024/02/03 07:42:18;;;;;;;;;;;;;;;5.41;56.26;100412.72;4993457;28;19913;-89
2024/02/03 07:44:44;;;;;;;;;;;;;;;5.51;56.51;100408.41;4993133;28;20008;-89
2024/02/03 07:47:09;;;;;;;;;;;;;;;5.62;56.67;100404.91;4992000;28;20379;-89
2024/02/03 07:49:34;;;;;;;;;;;;;;;5.71;56.50;100414.66;4993247;28;19914;-89
2024/02/03 07:52:00;;;;;;;;;;;;;;;5.81;56.07;100412.09;4975880;28;19914;-89
2024/02/03 07:54:25;;;;;;;;;;;;;;;5.86;52.20;100404.69;4992951;28;19914;-88
2024/02/03 07:56:50;;;;;;;;;;;;;;;5.95;54.31;100417.09;4975357;28;19949;-88
2024/02/03 07:59:15;;;;;;;;;;;;;;;6.02;52.24;100410.38;4993007;28;19985;-89
2024/02/03 08:01:41;;;;;;;;;;;;;;;6.09;51.53;100406.28;4991668;28;20336;-90
2024/02/03 08:04:06;;;;;;;;;;;;;;;6.18;50.86;100405.53;4975354;28;19914;-89
2024/02/03 08:06:31;;;;;;;;;;;;;;;6.29;51.67;100417.72;4991480;28;19922;-89
2024/02/03 08:08:57;;;;;;;;;;;;;;;6.35;51.35;100417.22;4991637;28;19918;-89
2024/02/03 08:11:22;;;;;;;;;;;;;;;6.36;49.05;100403.13;4991586;28;20373;-89
2024/02/03 08:13:47;;;;;;;;;;;;;;;6.38;48.27;100409.91;4992766;28;20390;-90
2024/02/03 08:16:13;;;;;;;;;;;;;;;6.47;49.03;100405.69;4975244;28;19949;-89
2024/02/03 08:18:38;;;;;;;;;;;;;;;6.53;49.23;100399.06;4975149;28;19913;-89
2024/02/03 08:21:03;;;;;;;;;;;;;;;6.60;50.56;100398.41;4992501;28;19914;-88
2024/02/03 08:23:29;;;;;;;;;;;;;;;6.62;47.97;100396.50;4993027;28;19965;-89
2024/02/03 08:25:55;;;;;;;;;;;;;;;6.69;49.03;100400.28;4975743;28;19956;-89
2024/02/03 08:28:20;;;;;;;;;;;;;;;6.73;47.78;100392.97;4998707;28;19914;-88
2024/02/03 08:30:45;;;;;;;;;;;;;;;6.80;48.77;100385.41;5009241;28;19921;-88
2024/02/03 08:33:11;;;;;;;;;;;;;;;6.85;50.20;100376.16;4993835;28;20304;-89
2024/02/03 08:35:36;;;;;;;;;;;;;;;6.88;49.40;100378.53;4991870;28;19913;-89
2024/02/03 08:38:01;;;;;;;;;;;;;;;6.92;48.31;100376.47;4992825;28;20046;-89
2024/02/03 08:40:28;;;;;;;;;;;;;;;6.92;48.51;100374.66;4991660;28;19921;-89
2024/02/03 08:42:53;;;;;;;;;;;;;;;6.98;47.34;100381.16;4991399;28;19914;-89
2024/02/03 08:45:18;;;;;;;;;;;;;;;7.04;48.99;100383.25;4991231;28;19924;-88
2024/02/03 08:47:44;;;;;;;;;;;;;;;7.10;48.37;100382.72;4991421;28;19920;-89
2024/02/03 08:50:09;;;;;;;;;;;;;;;7.13;47.05;100379.81;4992748;28;19914;-88
2024/02/03 08:52:34;;;;;;;;;;;;;;;7.20;48.46;100380.94;4991037;28;19914;-89
2024/02/03 08:55:00;;;;;;;;;;;;;;;7.25;47.85;100367.41;4991036;28;19918;-89
2024/02/03 08:57:25;;;;;;;;;;;;;;;7.28;47.66;100369.75;4975083;28;19945;-89
2024/02/03 08:59:51;;;;;;;;;;;;;;;7.32;48.00;100368.50;4990969;28;19914;-89
2024/02/03 09:02:16;;;;;;;;;;;;;;;7.40;46.72;100373.06;4974742;28;20074;-89
2024/02/03 09:04:42;;;;;;;;;;;;;;;7.45;46.92;100370.91;4991995;28;19976;-89
2024/02/03 09:07:07;;;;;;;;;;;;;;;7.53;46.54;100366.63;4992359;28;20366;-89
2024/02/03 09:09:32;;;;;;;;;;;;;;;7.54;46.78;100359.56;4975174;28;19979;-89
2024/02/03 09:11:58;;;;;;;;;;;;;;;7.65;46.45;100356.78;4992721;28;19918;-89
2024/02/03 09:14:23;;;;;;;;;;;;;;;7.73;46.81;100363.97;4992497;28;19913;-89
2024/02/03 09:16:48;;;;;;;;;;;;;;;7.82;46.85;100350.00;4991485;28;19913;-89
2024/02/03 09:19:13;;;;;;;;;;;;;;;7.91;47.22;100357.03;4975356;28;19920;-89
2024/02/03 09:21:41;;;;;;;;;;;;;;;7.95;46.37;100350.53;4975185;28;20045;-89
2024/02/03 09:24:06;;;;;;;;;;;;;;;8.01;45.55;100351.75;4992695;28;19920;-88
2024/02/03 09:26:31;;;;;;;;;;;;;;;8.07;45.29;100349.38;4992787;28;20405;-89
2024/02/03 09:28:57;;;;;;;;;;;;;;;8.12;45.80;100343.69;4991098;28;19928;-88
2024/02/03 09:31:22;;;;;;;;;;;;;;;8.17;46.76;100339.66;4992656;28;19921;-88
2024/02/03 09:33:47;;;;;;;;;;;;;;;8.17;44.82;100344.94;4991985;28;20351;-88
2024/02/03 09:36:13;;;;;;;;;;;;;;;8.21;44.64;100343.69;4990758;28;20001;-88
2024/02/03 09:38:39;;;;;;;;;;;;;;;8.25;43.34;100339.81;4990612;28;20307;-89
2024/02/03 09:41:05;;;;;;;;;;;;;;;8.31;44.73;100329.69;4990612;28;19921;-88
2024/02/03 09:43:31;;;;;;;;;;;;;;;8.33;43.36;100328.59;4990572;28;20399;-88
2024/02/03 09:45:57;;;;;;;;;;;;;;;8.47;45.12;100319.41;4977757;28;19972;-89
2024/02/03 09:48:23;;;;;;;;;;;;;;;8.48;44.16;100318.44;4977768;28;19963;-88
2024/02/03 09:50:49;;;;;;;;;;;;;;;8.55;45.19;100316.88;4993952;28;19921;-88
2024/02/03 09:53:14;;;;;;;;;;;;;;;8.64;44.63;100315.16;4993336;28;19913;-88
2024/02/03 09:55:41;;;;;;;;;;;;;;;8.73;45.41;100306.38;4997190;28;19932;-89
2024/02/03 09:58:06;;;;;;;;;;;;;;;8.81;45.11;100306.47;4997162;28;20319;-88
2024/02/03 10:00:32;;;;;;;;;;;;;;;8.90;42.77;100303.78;4996922;28;19914;-88
2024/02/03 10:02:57;;;;;;;;;;;;;;;8.97;43.63;100290.03;4996997;28;19913;-88
2024/02/03 10:05:29;;;;;;;;;;;;;;;9.06;44.79;100289.16;4996943;28;20367;-88
2024/02/03 10:08:02;;;;;;;;;;;;;;;9.08;44.00;100285.38;4997269;28;19918;-88
2024/02/03 10:10:28;;;;;;;;;;;;;;;9.15;44.24;100273.25;4996873;28;20390;-88
2024/02/03 10:13:03;;;;;;;;;;;;;;;9.18;43.74;100267.69;5014439;28;19920;-88
2024/02/03 10:15:28;;;;;;;;;;;;;;;9.21;42.57;100259.50;4996942;28;19921;-88
2024/02/03 10:17:58;;;;;;;;;;;;;;;9.22;42.17;100260.31;4996743;28;19913;-88
2024/02/03 10:20:23;;;;;;;;;;;;;;;9.29;43.40;100253.47;4996653;28;19913;-88
2024/02/03 10:22:49;;;;;;;;;;;;;;;9.38;42.46;100249.06;4996964;28;19913;-88
2024/02/03 10:25:14;;;;;;;;;;;;;;;9.47;43.87;100253.44;4996798;28;20387;-88
2024/02/03 10:27:40;;;;;;;;;;;;;;;9.52;44.13;100249.34;4996993;28;19918;-88
2024/02/03 10:30:05;;;;;;;;;;;;;;;9.60;43.78;100247.75;4998295;28;20012;-88
2024/02/03 10:32:31;;;;;;;;;;;;;;;9.65;43.22;100240.22;4994740;28;20447;-88
2024/02/03 10:34:56;;;;;;;;;;;;;;;9.66;41.02;100239.22;4995275;28;19921;-88
2024/02/03 10:37:21;;;;;;;;;;;;;;;9.68;41.61;100232.03;4995053;28;19957;-88
2024/02/03 10:39:47;;;;;;;;;;;;;;;9.74;43.23;100223.47;4994374;28;19914;-88
2024/02/03 10:42:17;;;;;;;;;;;;;;;9.81;43.44;100235.88;4994622;28;20288;-88
2024/02/03 10:44:46;;;;;;;;;;;;;;;9.84;43.59;100225.03;4977141;28;20009;-88
2024/02/03 10:47:11;;;;;;;;;;;;;;;9.84;40.55;100214.47;4994410;28;19913;-88
2024/02/03 10:49:39;;;;;;;;;;;;;;;9.82;38.99;100218.25;4994574;28;19922;-88
2024/02/03 10:52:06;;;;;;;;;;;;;;;9.87;40.46;100218.63;4977159;28;19917;-88
2024/02/03 10:54:32;;;;;;;;;;;;;;;9.88;41.51;100217.63;4976673;28;19913;-88
2024/02/03 10:56:59;;;;;;;;;;;;;;;9.82;40.43;100211.16;4976753;28;19914;-88
2024/02/03 10:59:24;;;;;;;;;;;;;;;9.88;42.99;100205.25;4977328;28;19914;-88
2024/02/03 11:01:50;;;;;;;;;;;;;;;9.95;40.81;100196.72;4976977;28;19914;-88
2024/02/03 11:04:16;;;;;;;;;;;;;;;10.02;41.43;100192.47;4994503;28;19949;-88
2024/02/03 11:06:44;;;;;;;;;;;;;;;10.03;39.01;100176.47;4976810;28;19917;-88
2024/02/03 11:09:13;;;;;;;;;;;;;;;10.03;39.71;100184.41;4994191;28;19921;-88
2024/02/03 11:11:41;;;;;;;;;;;;;;;10.03;39.94;100181.75;4977034;28;19917;-88
2024/02/03 11:14:10;;;;;;;;;;;;;;;10.01;38.59;100167.91;4994271;28;19957;-88
2024/02/03 11:16:36;;;;;;;;;;;;;;;10.01;40.08;100169.72;4976617;28;19914;-88
2024/02/03 11:19:01;;;;;;;;;;;;;;;10.04;38.65;100170.22;4994263;28;19914;-88
2024/02/03 11:21:27;;;;;;;;;;;;;;;10.06;40.00;100170.06;4976309;28;19937;-88
2024/02/03 11:23:52;;;;;;;;;;;;;;;10.02;39.41;100148.44;4976099;28;19924;-88
2024/02/03 11:26:17;;;;;;;;;;;;;;;10.02;38.92;100143.16;4975977;28;19918;-88
2024/02/03 11:28:43;;;;;;;;;;;;;;;10.05;40.46;100137.56;4975938;28;19932;-88
2024/02/03 11:31:12;;;;;;;;;;;;;;;9.99;40.08;100137.38;4993430;28;19913;-88
2024/02/03 11:33:41;;;;;;;;;;;;;;;10.02;39.97;100140.53;4993386;28;19913;-88
2024/02/03 11:36:08;;;;;;;;;;;;;;;10.01;38.62;100140.69;4978483;28;19950;-88
2024/02/03 11:38:33;;;;;;;;;;;;;;;9.96;37.44;100141.16;4989508;28;19914;-87
2024/02/03 11:40:59;;;;;;;;;;;;;;;9.93;37.99;100133.56;4976803;28;19917;-88
2024/02/03 11:43:25;;;;;;;;;;;;;;;9.97;39.12;100134.09;4993551;28;20314;-88
2024/02/03 11:45:58;;;;;;;;;;;;;;;9.97;38.63;100136.72;4993451;28;19929;-88
2024/02/03 11:48:23;;;;;;;;;;;;;;;9.97;38.49;100139.34;4993615;28;19914;-88
2024/02/03 11:50:49;;;;;;;;;;;;;;;9.96;39.47;100130.63;4993631;28;20406;-88
2024/02/03 11:53:22;;;;;;;;;;;;;;;9.99;40.45;100129.47;4975579;28;20387;-88
2024/02/03 11:55:47;;;;;;;;;;;;;;;9.97;39.52;100120.91;4992960;28;19914;-88
2024/02/03 11:58:12;;;;;;;;;;;;;;;9.99;39.56;100113.66;4992979;28;20381;-88
2024/02/03 12:00:37;;;;;;;;;;;;;;;10.02;39.21;100103.59;4993112;28;19914;-88
2024/02/03 12:03:04;;;;;;;;;;;;;;;10.08;38.91;100105.59;4975583;28;19920;-88
2024/02/03 12:05:29;;;;;;;;;;;;;;;10.11;38.58;100097.34;4992847;28;19922;-88
2024/02/03 12:07:54;;;;;;;;;;;;;;;10.12;39.44;100098.19;4974798;28;19944;-88
2024/02/03 12:10:20;;;;;;;;;;;;;;;10.13;39.65;100092.75;4992853;28;20319;-88
2024/02/03 12:12:45;;;;;;;;;;;;;;;10.09;39.72;100099.31;4992822;28;19914;-88
2024/02/03 12:15:10;;;;;;;;;;;;;;;10.00;39.36;100096.81;4992458;28;19918;-88
2024/02/03 12:17:36;;;;;;;;;;;;;;;9.97;40.21;100090.06;4992531;28;20300;-88
2024/02/03 12:20:01;;;;;;;;;;;;;;;9.95;40.91;100092.03;4992710;28;20314;-88
2024/02/03 12:22:27;;;;;;;;;;;;;;;9.94;40.11;100087.75;4975217;28;19968;-88
2024/02/03 12:24:52;;;;;;;;;;;;;;;9.95;40.29;100080.66;4992559;28;19922;-88
2024/02/03 12:27:20;;;;;;;;;;;;;;;9.97;40.27;100078.69;4992064;28;20323;-88
2024/02/03 12:29:46;;;;;;;;;;;;;;;10.02;40.51;100069.31;4975122;28;19965;-88
2024/02/03 12:32:11;;;;;;;;;;;;;;;10.06;40.21;100081.19;4974945;28;19965;-88
2024/02/03 12:34:36;;;;;;;;;;;;;;;10.05;39.91;100074.25;4992339;28;19910;-88
2024/02/03 12:37:02;;;;;;;;;;;;;;;9.98;40.07;100072.44;4992628;28;19914;-88
2024/02/03 12:39:27;;;;;;;;;;;;;;;9.93;39.97;100067.63;4975421;28;20314;-88
2024/02/03 12:41:53;;;;;;;;;;;;;;;9.86;39.91;100066.63;4992803;28;19921;-88
2024/02/03 12:44:18;;;;;;;;;;;;;;;9.83;39.70;100057.22;4975035;28;19921;-88
2024/02/03 12:46:43;;;;;;;;;;;;;;;9.81;40.17;100061.00;4975078;28;19969;-88
2024/02/03 12:49:09;;;;;;;;;;;;;;;9.84;40.82;100060.69;4975257;28;19921;-88
2024/02/03 12:51:34;;;;;;;;;;;;;;;9.82;40.58;100052.94;4975596;28;20363;-88
2024/02/03 12:54:00;;;;;;;;;;;;;;;9.83;40.48;100043.22;4975486;28;20311;-88
2024/02/03 12:56:25;;;;;;;;;;;;;;;9.88;40.79;100041.75;4975262;28;19929;-88
2024/02/03 12:58:50;;;;;;;;;;;;;;;9.87;40.54;100045.38;4975218;28;19914;-88
2024/02/03 13:01:16;;;;;;;;;;;;;;;9.94;41.25;100039.44;4992555;28;19913;-88
2024/02/03 13:03:41;;;;;;;;;;;;;;;10.01;41.27;100049.19;4975276;28;19940;-88
2024/02/03 13:06:07;;;;;;;;;;;;;;;10.09;40.40;100036.00;4974973;28;19918;-88
2024/02/03 13:08:32;;;;;;;;;;;;;;;10.17;40.50;100024.63;4992590;28;20026;-88
2024/02/03 13:10:57;;;;;;;;;;;;;;;10.24;41.21;100036.22;4992765;28;19921;-87
2024/02/03 13:13:23;;;;;;;;;;;;;;;10.32;40.01;100040.69;4993630;28;19972;-88
2024/02/03 13:15:48;;;;;;;;;;;;;;;10.35;39.85;100030.63;5003849;28;19914;-88
2024/02/03 13:18:13;;;;;;;;;;;;;;;10.42;40.06;100025.53;5000035;28;19914;-88
2024/02/03 13:20:40;;;;;;;;;;;;;;;10.48;40.57;100028.34;4978499;28;19914;-88
2024/02/03 13:23:05;;;;;;;;;;;;;;;10.47;39.74;100025.88;4996263;28;20350;-87
2024/02/03 13:25:30;;;;;;;;;;;;;;;10.53;40.38;100021.72;4978352;28;19918;-88
2024/02/03 13:27:56;;;;;;;;;;;;;;;10.49;39.66;100013.31;4995821;28;19914;-88
2024/02/03 13:30:21;;;;;;;;;;;;;;;10.47;40.03;100016.13;4995712;28;19929;-87
2024/02/03 13:32:46;;;;;;;;;;;;;;;10.52;40.58;100017.44;4978154;28;20063;-87
2024/02/03 13:35:12;;;;;;;;;;;;;;;10.49;39.74;99995.66;4995825;28;19917;-88
2024/02/03 13:37:39;;;;;;;;;;;;;;;10.50;39.61;99999.13;4995720;28;20314;-88
2024/02/03 13:40:05;;;;;;;;;;;;;;;10.49;39.66;100002.75;4995541;28;19917;-87
2024/02/03 13:42:31;;;;;;;;;;;;;;;10.49;39.65;100003.59;4995819;28;19928;-88
2024/02/03 13:44:56;;;;;;;;;;;;;;;10.51;40.32;100000.78;4995399;28;19922;-87
2024/02/03 13:47:22;;;;;;;;;;;;;;;10.50;39.55;100004.41;4995388;28;19918;-88
2024/02/03 13:49:47;;;;;;;;;;;;;;;10.52;40.58;100007.72;4977687;28;20417;-88
2024/02/03 13:52:14;;;;;;;;;;;;;;;10.50;39.37;99996.50;4995280;28;19914;-87
2024/02/03 13:54:39;;;;;;;;;;;;;;;10.50;40.40;99993.84;4978242;28;19910;-87
2024/02/03 13:57:04;;;;;;;;;;;;;;;10.46;40.39;100003.09;4978186;28;19988;-87
2024/02/03 13:59:30;;;;;;;;;;;;;;;10.47;40.25;100002.09;4995660;28;19914;-88
2024/02/03 14:01:56;;;;;;;;;;;;;;;10.46;40.63;99997.81;4978013;28;19917;-88
2024/02/03 14:04:21;;;;;;;;;;;;;;;10.43;40.11;100000.78;4995648;28;19918;-88
2024/02/03 14:06:46;;;;;;;;;;;;;;;10.44;40.84;100007.72;4977732;28;20276;-88
2024/02/03 14:09:12;;;;;;;;;;;;;;;10.42;40.36;99996.50;4995356;28;19957;-88
2024/02/03 14:11:37;;;;;;;;;;;;;;;10.40;39.59;99990.53;4978243;28;19913;-87
2024/02/03 14:14:02;;;;;;;;;;;;;;;10.42;39.51;99980.66;4977838;28;19916;-88
2024/02/03 14:16:28;;;;;;;;;;;;;;;10.40;39.96;99986.09;4995265;28;20337;-87
2024/02/03 14:18:53;;;;;;;;;;;;;;;10.40;39.89;99975.53;4995210;28;20055;-88
2024/02/03 14:21:18;;;;;;;;;;;;;;;10.41;40.70;99976.38;4995001;28;19914;-88
2024/02/03 14:23:43;;;;;;;;;;;;;;;10.37;40.01;99969.75;4977796;28;19920;-87
2024/02/03 14:26:09;;;;;;;;;;;;;;;10.39;41.05;99968.59;4995109;28;20380;-88
2024/02/03 14:28:34;;;;;;;;;;;;;;;10.40;40.13;99972.03;4995020;28;19937;-88
2024/02/03 14:30:59;;;;;;;;;;;;;;;10.43;40.49;99969.94;4994123;28;19920;-88
2024/02/03 14:33:26;;;;;;;;;;;;;;;10.42;40.12;99954.25;4977336;28;19920;-88
2024/02/03 14:35:52;;;;;;;;;;;;;;;10.44;40.55;99947.00;4977434;28;20012;-88
2024/02/03 14:38:19;;;;;;;;;;;;;;;10.42;40.97;99949.81;4994634;28;20391;-87
2024/02/03 14:40:44;;;;;;;;;;;;;;;10.42;40.95;99941.06;4977561;28;19921;-88
2024/02/03 14:43:10;;;;;;;;;;;;;;;10.39;40.77;99944.84;4994645;28;19914;-87
2024/02/03 14:45:35;;;;;;;;;;;;;;;10.34;40.83;99935.75;4994332;28;19971;-88
2024/02/03 14:48:00;;;;;;;;;;;;;;;10.33;41.57;99942.03;4994578;28;19913;-88
2024/02/03 14:50:27;;;;;;;;;;;;;;;10.32;41.59;99932.47;4976923;28;20307;-87
2024/02/03 14:52:53;;;;;;;;;;;;;;;10.31;42.07;99925.53;4977271;28;19920;-88
2024/02/03 14:55:18;;;;;;;;;;;;;;;10.30;41.80;99931.81;4994232;28;19914;-87
2024/02/03 14:57:44;;;;;;;;;;;;;;;10.26;41.78;99931.31;4994302;28;19914;-88
2024/02/03 15:00:09;;;;;;;;;;;;;;;10.23;41.76;99929.00;4994386;28;19914;-88
2024/02/03 15:02:35;;;;;;;;;;;;;;;10.16;42.11;99928.81;4976800;28;19967;-88
2024/02/03 15:05:01;;;;;;;;;;;;;;;10.10;42.17;99926.84;4976630;28;19918;-88
2024/02/03 15:07:26;;;;;;;;;;;;;;;10.05;42.10;99930.97;4994156;28;19945;-88
2024/02/03 15:09:52;;;;;;;;;;;;;;;10.02;42.08;99933.94;4994064;28;19925;-88
2024/02/03 15:12:24;;;;;;;;;;;;;;;9.97;42.26;99942.34;4976813;28;19914;-88
2024/02/03 15:14:49;;;;;;;;;;;;;;;9.94;42.16;99926.03;4976631;28;19920;-88
2024/02/03 15:17:15;;;;;;;;;;;;;;;9.91;42.45;99936.91;4976616;28;20399;-88
2024/02/03 15:19:40;;;;;;;;;;;;;;;9.86;42.71;99930.31;4994157;28;19973;-88
2024/02/03 15:22:05;;;;;;;;;;;;;;;9.83;42.49;99932.44;4976378;28;19913;-88
2024/02/03 15:24:31;;;;;;;;;;;;;;;9.78;43.09;99938.22;4993950;28;19921;-88
2024/02/03 15:26:56;;;;;;;;;;;;;;;9.73;43.00;99937.88;4993744;28;20000;-88
2024/02/03 15:29:21;;;;;;;;;;;;;;;9.69;42.79;99931.28;4993561;28;20014;-88
2024/02/03 15:31:46;;;;;;;;;;;;;;;9.65;43.10;99937.84;4993912;28;20383;-88
2024/02/03 15:34:12;;;;;;;;;;;;;;;9.61;43.21;99933.88;4993846;28;19914;-88
2024/02/03 15:36:37;;;;;;;;;;;;;;;9.56;43.30;99941.44;4993810;28;19921;-88
2024/02/03 15:39:02;;;;;;;;;;;;;;;9.52;43.62;99945.38;4993713;28;19906;-88
2024/02/03 15:41:28;;;;;;;;;;;;;;;9.44;43.77;99943.56;4992871;28;19964;-88
2024/02/03 15:43:53;;;;;;;;;;;;;;;9.41;43.80;99949.16;4993362;28;19914;-88
2024/02/03 15:46:18;;;;;;;;;;;;;;;9.38;43.74;99951.28;4993457;28;19918;-88
2024/02/03 15:48:44;;;;;;;;;;;;;;;9.32;43.95;99949.28;4993532;28;19914;-88
2024/02/03 15:51:09;;;;;;;;;;;;;;;9.30;44.05;99957.34;4976217;28;19941;-88
2024/02/03 15:53:34;;;;;;;;;;;;;;;9.29;44.17;99957.50;4993501;28;19921;-88
2024/02/03 15:56:00;;;;;;;;;;;;;;;9.24;44.19;99950.09;4993455;28;19953;-88
2024/02/03 15:58:26;;;;;;;;;;;;;;;9.22;44.33;99955.50;4975703;28;19918;-88
2024/02/03 16:00:51;;;;;;;;;;;;;;;9.17;44.78;99952.53;4993132;28;19996;-88
2024/02/03 16:03:17;;;;;;;;;;;;;;;9.12;45.02;99956.63;4975705;28;20013;-88
2024/02/03 16:05:42;;;;;;;;;;;;;;;9.06;45.00;99946.72;4975685;28;19922;-89
2024/02/03 16:08:07;;;;;;;;;;;;;;;9.04;45.11;99961.84;4975878;28;19953;-88
2024/02/03 16:10:32;;;;;;;;;;;;;;;9.01;45.42;99968.28;4993146;28;19996;-88
2024/02/03 16:12:58;;;;;;;;;;;;;;;8.97;45.28;99966.09;4975745;28;20008;-88
2024/02/03 16:15:24;;;;;;;;;;;;;;;8.94;45.62;99969.06;4975595;28;20391;-88
2024/02/03 16:17:49;;;;;;;;;;;;;;;8.90;45.65;99958.81;4992948;28;19925;-88
2024/02/03 16:20:15;;;;;;;;;;;;;;;8.89;45.76;99961.59;4992956;28;19914;-88
2024/02/03 16:22:40;;;;;;;;;;;;;;;8.88;45.88;99962.56;4975173;28;19914;-88
2024/02/03 16:25:05;;;;;;;;;;;;;;;8.86;46.05;99967.19;4992863;28;19949;-88
2024/02/03 16:27:31;;;;;;;;;;;;;;;8.85;45.62;99960.25;4992519;28;20004;-88
2024/02/03 16:29:56;;;;;;;;;;;;;;;8.84;46.08;99969.97;4974849;28;20425;-88
2024/02/03 16:32:21;;;;;;;;;;;;;;;8.84;46.08;99954.16;4974925;28;20438;-88
2024/02/03 16:34:47;;;;;;;;;;;;;;;8.83;46.19;99955.16;4974901;28;19914;-88
2024/02/03 16:37:12;;;;;;;;;;;;;;;8.82;46.36;99958.75;4992508;28;20314;-88